Time;durP1;ratioP1;P1;durP2;ratioP2;P2;SDS_P1;SDS_P2;PMS_P1;PMS_P2;Temp;Humidity;BMP_temperature;BMP_pressure;BME280_temperature;BME280_humidity;BME280_pressure;Samples;Min_cycle;Max_cycle;Signal;HPM_P1;HPM_P2
2024/02/08 00:03:51;;;;;;;1999.90;999.90;;;;;;;2.27;100.00;100339.53;10218374;29;20107;-66
2024/02/08 00:08:54;;;;;;;1999.90;999.90;;;;;;;2.04;100.00;100341.06;10217611;29;20058;-66
2024/02/08 00:13:56;;;;;;;1999.90;999.90;;;;;;;2.27;100.00;100337.81;10217456;29;20419;-66
2024/02/08 00:19:02;;;;;;;1999.90;999.90;;;;;;;2.21;100.00;100343.16;10216670;29;20079;-66
2024/02/08 00:24:05;;;;;;;1999.90;999.90;;;;;;;1.95;100.00;100339.59;10216816;29;20067;-66
2024/02/08 00:29:10;;;;;;;1999.90;999.90;;;;;;;2.04;100.00;100339.31;10217468;29;20083;-66
2024/02/08 00:34:12;;;;;;;1999.90;999.90;;;;;;;1.99;100.00;100338.59;10214961;29;20412;-66
2024/02/08 00:39:15;;;;;;;1999.90;999.90;;;;;;;1.84;100.00;100342.47;10217089;29;20195;-66
2024/02/08 00:44:18;;;;;;;1999.90;999.90;;;;;;;1.92;100.00;100342.28;10216838;29;20058;-66
2024/02/08 00:49:21;;;;;;;1999.90;999.90;;;;;;;2.35;100.00;100348.72;10214886;29;20077;-66
2024/02/08 00:54:24;;;;;;;1999.90;999.90;;;;;;;2.39;100.00;100352.09;10215874;29;20502;-66
2024/02/08 00:59:26;;;;;;;1999.90;999.90;;;;;;;2.04;100.00;100352.22;10215157;29;20052;-66
2024/02/08 01:04:28;;;;;;;1999.90;999.90;;;;;;;2.20;100.00;100347.47;10215470;29;20407;-66
2024/02/08 01:09:31;;;;;;;1999.90;999.90;;;;;;;2.15;100.00;100333.84;10215359;29;20510;-66
2024/02/08 01:14:33;;;;;;;1999.90;999.90;;;;;;;2.20;100.00;100350.06;10215864;29;20052;-66
2024/02/08 01:19:36;;;;;;;1999.90;999.90;;;;;;;2.31;100.00;100351.47;10213980;29;20484;-66
2024/02/08 01:24:38;;;;;;;1999.90;999.90;;;;;;;2.35;100.00;100358.22;10214903;29;20055;-66
2024/02/08 01:29:41;;;;;;;1999.90;999.90;;;;;;;2.31;100.00;100338.56;10215410;29;20079;-66
2024/02/08 01:34:46;;;;;;;1999.90;999.90;;;;;;;2.45;100.00;100346.72;10213448;29;20476;-66
2024/02/08 01:39:49;;;;;;;1999.90;999.90;;;;;;;2.36;100.00;100332.34;10214671;29;20463;-66
2024/02/08 01:44:59;;;;;;;1999.90;999.90;;;;;;;2.40;100.00;100307.25;10213420;29;20483;-66
2024/02/08 01:50:03;;;;;;;1999.90;999.90;;;;;;;2.34;100.00;100302.28;10213793;29;20052;-66
2024/02/08 01:55:06;;;;;;;1999.90;999.90;;;;;;;2.74;100.00;100317.38;10213578;29;20052;-66
2024/02/08 02:00:09;;;;;;;1999.90;999.90;;;;;;;2.55;100.00;100321.44;10213509;29;20047;-66
2024/02/08 02:05:17;;;;;;;1999.90;999.90;;;;;;;2.39;100.00;100321.06;10213327;29;20048;-66
2024/02/08 02:10:20;;;;;;;1999.90;999.90;;;;;;;2.69;100.00;100305.47;10213359;29;20150;-66
2024/02/08 02:15:23;;;;;;;1999.90;999.90;;;;;;;2.36;100.00;100328.91;10213774;29;20054;-66
2024/02/08 02:20:29;;;;;;;1999.90;999.90;;;;;;;2.39;100.00;100315.91;10213160;29;20051;-66
2024/02/08 02:25:32;;;;;;;1999.90;999.90;;;;;;;2.55;100.00;100304.16;10212291;29;20482;-66
2024/02/08 02:30:35;;;;;;;1999.90;999.90;;;;;;;2.13;100.00;100291.72;10214090;29;20052;-66
2024/02/08 02:35:38;;;;;;;1999.90;999.90;;;;;;;2.43;100.00;100289.06;10213387;29;20535;-66
2024/02/08 02:40:41;;;;;;;1999.90;999.90;;;;;;;2.50;100.00;100297.47;10213865;29;20102;-66
2024/02/08 02:45:44;;;;;;;1999.90;999.90;;;;;;;2.49;100.00;100293.19;10212629;29;20095;-66
2024/02/08 02:50:46;;;;;;;1999.90;999.90;;;;;;;2.33;100.00;100279.91;10213771;29;20056;-66
2024/02/08 02:55:49;;;;;;;1999.90;999.90;;;;;;;2.34;100.00;100274.72;10216807;29;20347;-66
2024/02/08 03:01:07;;;;;;;1999.90;999.90;;;;;;;2.45;100.00;100289.84;10220198;29;20062;-66
2024/02/08 03:06:16;;;;;;;1999.90;999.90;;;;;;;2.50;100.00;100284.56;10219537;29;20051;-66
2024/02/08 03:11:20;;;;;;;1999.90;999.90;;;;;;;2.56;100.00;100277.44;10220518;29;20127;-66
2024/02/08 03:16:28;;;;;;;1999.90;999.90;;;;;;;2.09;100.00;100272.03;10220281;29;20043;-66
2024/02/08 03:21:32;;;;;;;1999.90;999.90;;;;;;;2.32;100.00;100267.88;10203400;29;20414;-66
2024/02/08 03:26:44;;;;;;;1999.90;999.90;;;;;;;2.36;100.00;100261.75;10217994;29;20090;-66
2024/02/08 03:31:47;;;;;;;1999.90;999.90;;;;;;;2.32;100.00;100275.63;10218706;29;20138;-66
2024/02/08 03:36:50;;;;;;;1999.90;999.90;;;;;;;2.47;100.00;100275.16;10218326;29;20058;-66
2024/02/08 03:41:58;;;;;;;1999.90;999.90;;;;;;;2.39;100.00;100256.50;10219323;29;20102;-66
2024/02/08 03:47:12;;;;;;;1999.90;999.90;;;;;;;2.26;100.00;100248.28;10217919;29;20058;-66
2024/02/08 03:52:18;;;;;;;1999.90;999.90;;;;;;;2.30;100.00;100230.94;10217932;29;20062;-66
2024/02/08 03:57:23;;;;;;;1999.90;999.90;;;;;;;2.15;100.00;100233.13;10218136;29;20050;-66
2024/02/08 04:02:26;;;;;;;1999.90;999.90;;;;;;;2.27;100.00;100247.38;10217510;29;20087;-66
2024/02/08 04:07:45;;;;;;;1999.90;999.90;;;;;;;2.39;100.00;100248.72;10217336;29;20051;-66
2024/02/08 04:55:46;;;;;;;1999.90;999.90;;;;;;;2.92;100.00;100209.88;10208368;29;20464;-66
2024/02/08 05:00:48;;;;;;;1999.90;999.90;;;;;;;2.78;100.00;100199.19;10215752;29;20058;-66
2024/02/08 05:05:54;;;;;;;1999.90;999.90;;;;;;;2.77;100.00;100200.06;10215498;29;20502;-66
2024/02/08 05:10:56;;;;;;;1999.90;999.90;;;;;;;2.62;100.00;100208.34;10216075;29;20055;-66
2024/02/08 05:15:59;;;;;;;1999.90;999.90;;;;;;;2.79;100.00;100206.03;10214696;29;20048;-66
2024/02/08 05:21:05;;;;;;;1999.90;999.90;;;;;;;2.58;100.00;100203.28;10215465;29;20051;-66
2024/02/08 05:26:18;;;;;;;1999.90;999.90;;;;;;;2.29;100.00;100193.09;10213435;29;20066;-66
2024/02/08 05:31:21;;;;;;;1999.90;999.90;;;;;;;2.48;100.00;100203.66;10214257;29;20156;-66
2024/02/08 05:36:24;;;;;;;1999.90;999.90;;;;;;;2.41;100.00;100206.44;10213514;29;20385;-66
2024/02/08 05:41:32;;;;;;;1999.90;999.90;;;;;;;2.21;100.00;100204.50;10213925;29;20471;-66
2024/02/08 05:46:38;;;;;;;1999.90;999.90;;;;;;;2.01;100.00;100199.97;10213874;29;20051;-66
2024/02/08 05:51:46;;;;;;;1999.90;999.90;;;;;;;2.08;100.00;100202.38;10215015;29;20056;-66
2024/02/08 05:56:57;;;;;;;1999.90;999.90;;;;;;;2.13;100.00;100200.47;10213059;29;20078;-66
2024/02/08 06:02:01;;;;;;;1999.90;999.90;;;;;;;2.06;100.00;100194.66;10214049;29;20055;-66
2024/02/08 06:07:07;;;;;;;1999.90;999.90;;;;;;;1.96;100.00;100181.19;10214461;29;20058;-66
2024/02/08 06:12:09;;;;;;;1999.90;999.90;;;;;;;2.30;100.00;100190.44;10213446;29;20054;-66
2024/02/08 06:17:12;;;;;;;1999.90;999.90;;;;;;;2.34;100.00;100191.19;10213714;29;20256;-66
2024/02/08 06:22:22;;;;;;;1999.90;999.90;;;;;;;2.43;100.00;100177.97;10214294;29;20126;-66
2024/02/08 06:27:33;;;;;;;1999.90;999.90;;;;;;;2.55;100.00;100187.03;10214194;29;20103;-66
2024/02/08 06:32:44;;;;;;;1999.90;999.90;;;;;;;2.55;100.00;100174.13;10220331;29;20126;-66
2024/02/08 06:38:00;;;;;;;;;;;;;;;2.63;100.00;100179.88;10222526;29;20044;-66
2024/02/08 07:41:53;;;;;;;1999.90;999.90;;;;;;;2.66;100.00;100103.97;10217916;29;20055;-66
2024/02/08 07:46:56;;;;;;;1999.90;999.90;;;;;;;2.77;100.00;100089.78;10219144;29;20307;-66
2024/02/08 07:51:59;;;;;;;1999.90;999.90;;;;;;;2.79;100.00;100095.72;10218967;29;20062;-66
2024/02/08 07:57:03;;;;;;;1999.90;999.90;;;;;;;2.39;100.00;100085.97;10218143;29;20452;-66
2024/02/08 08:02:12;;;;;;;1999.90;999.90;;;;;;;2.30;100.00;100081.94;10218018;29;20058;-66
2024/02/08 08:07:22;;;;;;;1999.90;999.90;;;;;;;2.35;100.00;100089.53;10217782;29;20055;-66
2024/02/08 08:12:28;;;;;;;1999.90;999.90;;;;;;;2.42;100.00;100078.06;10218215;29;20055;-66
2024/02/08 08:17:31;;;;;;;1999.90;999.90;;;;;;;2.72;100.00;100070.13;10218045;29;20055;-66
2024/02/08 08:27:52;;;;;;;1999.90;999.90;;;;;;;2.90;100.00;100055.69;10216469;29;20126;-65
2024/02/08 08:38:28;;;;;;;1999.90;999.90;;;;;;;3.18;100.00;100045.16;10216155;29;20052;-65
2024/02/08 08:43:34;;;;;;;1999.90;999.90;;;;;;;3.54;100.00;100031.63;10217080;29;20102;-65
2024/02/08 08:48:37;;;;;;;1999.90;999.90;;;;;;;3.48;100.00;100024.97;10216802;29;20047;-65
2024/02/08 08:53:56;;;;;;;1999.90;999.90;;;;;;;3.67;100.00;100014.72;10214436;29;20067;-65
2024/02/08 08:58:59;;;;;;;1999.90;999.90;;;;;;;3.64;100.00;100003.63;10216534;29;20103;-65
2024/02/08 09:04:22;;;;;;;1999.90;999.90;;;;;;;3.63;100.00;99997.63;10215639;29;20492;-65
2024/02/08 09:09:28;;;;;;;1999.90;999.90;;;;;;;3.95;100.00;99990.25;10215164;29;20051;-65
2024/02/08 09:14:32;;;;;;;1999.90;999.90;;;;;;;3.94;100.00;99982.53;10215357;29;20062;-65
2024/02/08 09:19:37;;;;;;;1999.90;999.90;;;;;;;4.13;100.00;99973.06;10215680;29;20051;-65
2024/02/08 09:24:44;;;;;;;1999.90;999.90;;;;;;;4.05;100.00;99960.44;10215111;29;20063;-65
2024/02/08 09:30:10;;;;;;;1999.90;999.90;;;;;;;3.91;100.00;99966.22;10214291;29;20051;-65
2024/02/08 09:35:12;;;;;;;1999.90;999.90;;;;;;;3.72;100.00;99950.63;10214717;29;20107;-65
2024/02/08 09:40:32;;;;;;;1999.90;999.90;;;;;;;3.58;100.00;99949.53;10214502;29;20404;-65
2024/02/08 09:50:49;;;;;;;1999.90;999.90;;;;;;;3.75;100.00;99908.25;10213752;29;20051;-65
2024/02/08 09:55:57;;;;;;;1999.90;999.90;;;;;;;3.65;100.00;99902.63;10213668;29;20082;-65
2024/02/08 10:01:00;;;;;;;1999.90;999.90;;;;;;;3.97;100.00;99890.00;10213017;29;20526;-65
2024/02/08 10:06:12;;;;;;;1999.90;999.90;;;;;;;4.09;100.00;99876.50;10217622;29;20499;-65
2024/02/08 10:11:24;;;;;;;1999.90;999.90;;;;;;;4.23;100.00;99873.28;10207092;29;20058;-65
2024/02/08 10:16:30;;;;;;;;;;;;;;;4.11;100.00;99865.25;10221905;29;20052;-65
2024/02/08 10:21:35;;;;;;;1999.90;999.90;;;;;;;3.96;100.00;99865.00;10221365;29;19926;-65
2024/02/08 10:26:40;;;;;;;1999.90;999.90;;;;;;;4.09;100.00;99845.41;10221236;29;20066;-65
2024/02/08 10:31:47;;;;;;;1999.90;999.90;;;;;;;4.18;100.00;99831.19;10220221;29;20455;-65
2024/02/08 10:36:49;;;;;;;1999.90;999.90;;;;;;;4.44;100.00;99817.03;10220210;29;20058;-65
2024/02/08 10:41:59;;;;;;;1999.90;999.90;;;;;;;4.75;100.00;99814.69;10222027;29;20110;-65
2024/02/08 10:47:06;;;;;;;1999.90;999.90;;;;;;;4.73;100.00;99832.09;10220377;29;20048;-66
2024/02/08 10:52:19;;;;;;;1999.90;999.90;;;;;;;4.51;100.00;99814.16;10220196;29;20107;-66
2024/02/08 10:58:01;;;;;;;1999.90;999.90;;;;;;;4.39;100.00;99779.28;10220220;29;20047;-66
2024/02/08 11:03:33;;;;;;;1999.90;999.90;;;;;;;4.42;100.00;99767.00;10221023;29;20060;-65
2024/02/08 11:08:50;;;;;;;1999.90;999.90;;;;;;;4.39;100.00;99782.72;10219134;29;20491;-67
2024/02/08 11:13:54;;;;;;;1999.90;999.90;;;;;;;4.40;100.00;99792.16;10220549;29;20107;-67
2024/02/08 11:18:57;;;;;;;1999.90;999.90;;;;;;;4.63;100.00;99790.22;10218130;29;20385;-67
2024/02/08 11:24:01;;;;;;;1999.90;999.90;;;;;;;4.66;100.00;99758.94;10218409;29;20094;-67
2024/02/08 11:29:18;;;;;;;1999.90;999.90;;;;;;;4.47;100.00;99727.88;10218675;29;20173;-67
2024/02/08 11:34:24;;;;;;;1999.90;999.90;;;;;;;4.64;100.00;99727.91;10219123;29;20051;-66
2024/02/08 11:39:27;;;;;;;1999.90;999.90;;;;;;;4.76;100.00;99757.56;10225185;23;20059;-68
2024/02/08 11:44:35;;;;;;;1999.90;999.90;;;;;;;4.50;100.00;99745.88;10218300;29;20056;-68
2024/02/08 11:49:40;;;;;;;1999.90;999.90;;;;;;;4.83;100.00;99740.78;10219236;29;20048;-68
2024/02/08 11:54:43;;;;;;;1999.90;999.90;;;;;;;4.87;100.00;99728.50;10217798;29;20064;-68
2024/02/08 11:59:45;;;;;;;1999.90;999.90;;;;;;;4.71;100.00;99737.97;10217652;29;20075;-68
2024/02/08 12:04:52;;;;;;;1999.90;999.90;;;;;;;4.87;100.00;99743.22;10217987;29;20052;-68
2024/02/08 12:10:09;;;;;;;1999.90;999.90;;;;;;;4.60;100.00;99708.22;10218480;29;20061;-68
2024/02/08 12:15:12;;;;;;;1999.90;999.90;;;;;;;4.73;100.00;99708.47;10218237;29;20055;-68
2024/02/08 12:20:19;;;;;;;1999.90;999.90;;;;;;;4.69;100.00;99706.09;10218010;29;20118;-68
2024/02/08 12:25:21;;;;;;;1999.90;999.90;;;;;;;4.77;100.00;99689.22;10215944;29;20043;-68
2024/02/08 12:30:28;;;;;;;1999.90;999.90;;;;;;;5.10;100.00;99703.16;10216805;29;20063;-68
2024/02/08 12:35:30;;;;;;;1999.90;999.90;;;;;;;4.81;100.00;99688.16;10215773;29;20058;-68
2024/02/08 12:40:33;;;;;;;1999.90;999.90;;;;;;;4.75;100.00;99661.72;10216527;29;20087;-68
2024/02/08 12:45:35;;;;;;;1999.90;999.90;;;;;;;4.72;100.00;99638.53;10216390;29;20599;-70
2024/02/08 12:50:38;;;;;;;1999.90;999.90;;;;;;;4.67;100.00;99628.38;10215684;29;20079;-68
2024/02/08 12:55:41;;;;;;;1999.90;999.90;;;;;;;4.37;100.00;99626.47;10216054;29;20464;-68
2024/02/08 13:00:56;;;;;;;1999.90;999.90;;;;;;;4.38;100.00;99622.09;10216568;29;20052;-68
2024/02/08 13:05:59;;;;;;;1999.90;999.90;;;;;;;4.57;100.00;99602.13;10198817;29;20475;-68
2024/02/08 13:11:02;;;;;;;1999.90;999.90;;;;;;;4.33;100.00;99596.41;10215671;29;20529;-68
2024/02/08 13:16:09;;;;;;;1999.90;999.90;;;;;;;4.23;100.00;99579.66;10214824;29;20043;-67
2024/02/08 13:21:13;;;;;;;1999.90;999.90;;;;;;;4.47;100.00;99577.56;10215897;29;20063;-68
2024/02/08 13:26:17;;;;;;;1999.90;999.90;;;;;;;4.19;100.00;99568.63;10214941;29;20506;-68
2024/02/08 13:31:38;;;;;;;1999.90;999.90;;;;;;;4.19;100.00;99553.06;10215561;29;20079;-68
2024/02/08 13:36:43;;;;;;;1999.90;999.90;;;;;;;4.07;100.00;99536.41;10214341;29;20067;-68
2024/02/08 13:41:46;;;;;;;1999.90;999.90;;;;;;;4.09;100.00;99507.84;10215152;29;20058;-68
2024/02/08 13:46:48;;;;;;;1999.90;999.90;;;;;;;4.01;100.00;99509.97;10215024;29;20043;-68
2024/02/08 13:51:51;;;;;;;1999.90;999.90;;;;;;;4.01;100.00;99508.22;10215071;29;20056;-68
2024/02/08 13:56:55;;;;;;;1999.90;999.90;;;;;;;4.18;100.00;99501.34;10214857;29;20066;-68
2024/02/08 14:01:57;;;;;;;1999.90;999.90;;;;;;;4.06;100.00;99488.09;10214134;29;20063;-68
2024/02/08 14:07:00;;;;;;;1999.90;999.90;;;;;;;4.09;100.00;99467.22;10214569;29;20062;-67
2024/02/08 14:12:08;;;;;;;1999.90;999.90;;;;;;;3.88;100.00;99451.03;10197202;29;20047;-67
2024/02/08 14:17:10;;;;;;;1999.90;999.90;;;;;;;3.91;100.00;99437.91;10213872;29;20414;-67
2024/02/08 14:22:16;;;;;;;1999.90;999.90;;;;;;;3.85;100.00;99439.97;10214390;29;20051;-67
2024/02/08 14:27:19;;;;;;;1999.90;999.90;;;;;;;3.76;100.00;99423.16;10214225;29;20102;-67
2024/02/08 14:32:22;;;;;;;1999.90;999.90;;;;;;;3.74;100.00;99424.19;10214232;29;20055;-67
2024/02/08 14:37:39;;;;;;;1999.90;999.90;;;;;;;3.93;100.00;99398.16;10213871;29;20062;-68
2024/02/08 14:42:43;;;;;;;1999.90;999.90;;;;;;;3.77;100.00;99393.78;10213426;29;20131;-67
2024/02/08 14:47:50;;;;;;;1999.90;999.90;;;;;;;3.52;100.00;99363.16;10213792;29;20114;-67
2024/02/08 14:52:54;;;;;;;1999.90;999.90;;;;;;;3.68;100.00;99356.28;10218694;29;20103;-67
2024/02/08 14:57:58;;;;;;;1999.90;999.90;;;;;;;3.64;100.00;99354.75;10221312;29;20131;-67
2024/02/08 15:03:07;;;;;;;1999.90;999.90;;;;;;;3.86;100.00;99338.09;10220550;29;20451;-67
2024/02/08 15:13:23;;;;;;;1999.90;999.90;;;;;;;3.66;100.00;99318.44;10220585;29;20048;-68
2024/02/08 15:18:38;;;;;;;1999.90;999.90;;;;;;;3.54;100.00;99302.63;10220381;29;20047;-67
2024/02/08 15:23:48;;;;;;;1999.90;999.90;;;;;;;3.63;100.00;99300.47;10220238;29;20095;-67
2024/02/08 15:28:55;;;;;;;1999.90;999.90;;;;;;;3.42;100.00;99295.50;10219542;29;20554;-67
2024/02/08 15:39:56;;;;;;;1999.90;999.90;;;;;;;3.29;100.00;99276.34;10219143;29;20062;-67
2024/02/08 15:44:58;;;;;;;1999.90;999.90;;;;;;;3.70;100.00;99268.19;10218855;29;20062;-67
2024/02/08 15:50:14;;;;;;;1999.90;999.90;;;;;;;3.67;100.00;99258.81;10218138;29;20122;-67
2024/02/08 15:55:17;;;;;;;1999.90;999.90;;;;;;;3.57;100.00;99247.28;10218448;29;20118;-67
2024/02/08 16:05:44;;;;;;;1999.90;999.90;;;;;;;3.32;100.00;99240.00;10217994;29;20062;-67
2024/02/08 16:10:49;;;;;;;1999.90;999.90;;;;;;;3.39;100.00;99241.31;10218051;29;20438;-68
2024/02/08 16:15:57;;;;;;;1999.90;999.90;;;;;;;3.46;100.00;99226.31;10218258;29;20048;-67
2024/02/08 16:21:05;;;;;;;1999.90;999.90;;;;;;;3.58;100.00;99222.25;10217463;29;20551;-68
2024/02/08 16:26:09;;;;;;;1999.90;999.90;;;;;;;3.72;100.00;99205.06;10217829;29;20051;-67
2024/02/08 16:31:34;;;;;;;1999.90;999.90;;;;;;;3.37;100.00;99204.38;10216542;29;20056;-67
2024/02/08 16:36:44;;;;;;;1999.90;999.90;;;;;;;3.47;100.00;99191.78;10215775;29;20051;-67
2024/02/08 16:41:55;;;;;;;1999.90;999.90;;;;;;;3.75;100.00;99193.72;10216392;29;20059;-67
2024/02/08 16:46:59;;;;;;;1999.90;999.90;;;;;;;3.79;100.00;99200.38;10215923;29;20083;-67
2024/02/08 16:52:06;;;;;;;1999.90;999.90;;;;;;;3.41;100.00;99195.50;10215070;29;20422;-67
2024/02/08 16:57:14;;;;;;;1999.90;999.90;;;;;;;3.76;100.00;99200.53;10216123;29;20497;-67
2024/02/08 17:02:44;;;;;;;1999.90;999.90;;;;;;;3.63;100.00;99179.69;10215782;29;20459;-67
2024/02/08 17:13:10;;;;;;;1999.90;999.90;;;;;;;3.28;100.00;99184.16;10215741;29;20224;-67
2024/02/08 17:18:16;;;;;;;1999.90;999.90;;;;;;;3.33;100.00;99175.25;10214398;29;20559;-67
2024/02/08 17:23:41;;;;;;;1999.90;999.90;;;;;;;3.54;100.00;99180.16;10215820;29;20047;-67
2024/02/08 17:29:06;;;;;;;1999.90;999.90;;;;;;;3.35;100.00;99168.22;10214484;29;20048;-67
2024/02/08 17:34:21;;;;;;;1999.90;999.90;;;;;;;3.63;100.00;99158.13;10215243;29;20134;-67
2024/02/08 17:39:24;;;;;;;1999.90;999.90;;;;;;;3.37;100.00;99152.63;10213738;29;20144;-67
2024/02/08 17:44:29;;;;;;;1999.90;999.90;;;;;;;3.51;100.00;99134.59;10215102;29;20062;-67
2024/02/08 17:49:36;;;;;;;1999.90;999.90;;;;;;;3.58;100.00;99142.00;10214910;29;20059;-67
2024/02/08 17:54:44;;;;;;;1999.90;999.90;;;;;;;3.49;100.00;99127.84;10213775;29;20051;-67
2024/02/08 17:59:58;;;;;;;1999.90;999.90;;;;;;;3.68;100.00;99122.47;10214729;29;20052;-67
2024/02/08 18:05:08;;;;;;;1999.90;999.90;;;;;;;3.53;100.00;99111.19;10212714;29;20455;-67
2024/02/08 18:10:16;;;;;;;1999.90;999.90;;;;;;;3.84;100.00;99106.91;10214546;29;20095;-67
2024/02/08 18:15:26;;;;;;;1999.90;999.90;;;;;;;3.96;100.00;99107.97;10214629;29;20130;-67
2024/02/08 18:20:33;;;;;;;1999.90;999.90;;;;;;;3.67;100.00;99110.47;10214422;29;20138;-67
2024/02/08 18:25:37;;;;;;;1999.90;999.90;;;;;;;3.59;100.00;99097.09;10216200;29;20412;-67
2024/02/08 18:30:43;;;;;;;1999.90;999.90;;;;;;;3.56;100.00;99125.75;10221661;29;20054;-67
2024/02/08 18:35:47;;;;;;;1999.90;999.90;;;;;;;3.82;100.00;99106.19;10222058;29;20058;-67
2024/02/08 18:40:54;;;;;;;1999.90;999.90;;;;;;;3.67;100.00;99088.00;10221097;29;20392;-67
2024/02/08 18:45:57;;;;;;;1999.90;999.90;;;;;;;3.82;100.00;99101.00;10220971;29;20534;-67
2024/02/08 18:51:03;;;;;;;1999.90;999.90;;;;;;;3.80;100.00;99098.50;10221418;29;20048;-67
2024/02/08 18:56:10;;;;;;;1999.90;999.90;;;;;;;3.97;100.00;99092.34;10220756;29;20055;-67
2024/02/08 19:01:13;;;;;;;1999.90;999.90;;;;;;;3.79;100.00;99073.53;10221070;29;20055;-67
2024/02/08 19:06:17;;;;;;;1999.90;999.90;;;;;;;3.94;100.00;99065.81;10220341;29;20481;-67
2024/02/08 19:11:20;;;;;;;1999.90;999.90;;;;;;;3.89;100.00;99055.72;10220790;29;20177;-67
2024/02/08 19:16:27;;;;;;;1999.90;999.90;;;;;;;3.77;100.00;99041.72;10220134;29;20082;-67
2024/02/08 19:21:31;;;;;;;1999.90;999.90;;;;;;;3.87;100.00;99042.84;10219721;29;20504;-67
2024/02/08 19:26:35;;;;;;;1999.90;999.90;;;;;;;4.08;100.00;99045.09;10220069;29;20050;-67
2024/02/08 19:31:41;;;;;;;1999.90;999.90;;;;;;;3.88;100.00;99041.94;10219341;29;20515;-67
2024/02/08 19:36:51;;;;;;;1999.90;999.90;;;;;;;4.09;100.00;99034.66;10218341;29;20074;-67
2024/02/08 19:42:01;;;;;;;1999.90;999.90;;;;;;;4.15;100.00;99019.69;10218947;29;20059;-67
2024/02/08 19:47:13;;;;;;;1999.90;999.90;;;;;;;4.18;100.00;99015.16;10218760;29;20059;-67
2024/02/08 19:52:17;;;;;;;1999.90;999.90;;;;;;;3.96;100.00;99010.41;10219234;29;20058;-67
2024/02/08 19:57:26;;;;;;;1999.90;999.90;;;;;;;4.11;100.00;99005.25;10219013;29;20048;-67
2024/02/08 20:02:30;;;;;;;1999.90;999.90;;;;;;;4.18;100.00;98998.78;10218866;29;20058;-67
2024/02/08 20:07:38;;;;;;;1999.90;999.90;;;;;;;3.84;100.00;98993.00;10217448;29;20048;-67
2024/02/08 20:12:44;;;;;;;1999.90;999.90;;;;;;;4.05;100.00;98988.31;10217869;29;20099;-67
2024/02/08 20:17:49;;;;;;;1999.90;999.90;;;;;;;4.00;100.00;98992.94;10218410;29;20063;-67
2024/02/08 20:22:53;;;;;;;1999.90;999.90;;;;;;;4.21;100.00;98983.06;10218039;29;20067;-67
2024/02/08 20:27:59;;;;;;;1999.90;999.90;;;;;;;4.25;100.00;98974.16;10216025;29;20106;-67
2024/02/08 20:33:04;;;;;;;1999.90;999.90;;;;;;;4.38;100.00;98969.09;10217053;29;20055;-67
2024/02/08 20:38:14;;;;;;;1999.90;999.90;;;;;;;4.19;100.00;98964.19;10217235;29;20052;-67
2024/02/08 20:43:21;;;;;;;1999.90;999.90;;;;;;;4.39;100.00;98952.63;10217296;29;20059;-67
2024/02/08 20:48:24;;;;;;;1999.90;999.90;;;;;;;4.48;100.00;98946.84;10216345;29;20052;-67
2024/02/08 20:53:27;;;;;;;1999.90;999.90;;;;;;;4.47;100.00;98952.97;10216826;29;20055;-67
2024/02/08 20:58:30;;;;;;;1999.90;999.90;;;;;;;4.64;100.00;98942.41;10216097;29;20135;-67
2024/02/08 21:03:33;;;;;;;1999.90;999.90;;;;;;;4.67;100.00;98930.97;10214777;29;20062;-67
2024/02/08 21:08:38;;;;;;;1999.90;999.90;;;;;;;4.62;100.00;98933.03;10215131;29;20111;-67
2024/02/08 21:13:40;;;;;;;1999.90;999.90;;;;;;;4.77;100.00;98926.88;10215532;29;20055;-67
2024/02/08 21:18:51;;;;;;;1999.90;999.90;;;;;;;4.81;100.00;98925.78;10215459;29;20048;-67
2024/02/08 21:23:55;;;;;;;1999.90;999.90;;;;;;;4.89;100.00;98919.25;10215817;29;20059;-67
2024/02/08 21:28:59;;;;;;;1999.90;999.90;;;;;;;4.68;100.00;98917.09;10214405;29;20086;-67
2024/02/08 21:34:01;;;;;;;1999.90;999.90;;;;;;;4.89;100.00;98906.28;10215533;29;20062;-67
2024/02/08 21:39:18;;;;;;;1999.90;999.90;;;;;;;4.78;100.00;98909.59;10214995;29;20056;-67
2024/02/08 21:44:20;;;;;;;1999.90;999.90;;;;;;;4.75;100.00;98900.22;10213769;29;20056;-67
2024/02/08 21:49:25;;;;;;;1999.90;999.90;;;;;;;4.76;100.00;98901.91;10214970;29;20048;-67
2024/02/08 21:54:28;;;;;;;1999.90;999.90;;;;;;;4.87;100.00;98902.97;10214505;29;20415;-67
2024/02/08 21:59:37;;;;;;;1999.90;999.90;;;;;;;5.07;100.00;98888.72;10214812;29;20123;-67
2024/02/08 22:04:39;;;;;;;1999.90;999.90;;;;;;;5.26;100.00;98896.97;10213608;29;20054;-67
2024/02/08 22:09:46;;;;;;;1999.90;999.90;;;;;;;5.50;100.00;98906.66;10214730;29;20052;-68
2024/02/08 22:14:49;;;;;;;1999.90;999.90;;;;;;;5.83;100.00;98898.34;10214596;29;20054;-67
2024/02/08 22:19:51;;;;;;;1999.90;999.90;;;;;;;6.05;100.00;98889.97;10213836;29;20134;-67
2024/02/08 22:24:57;;;;;;;1999.90;999.90;;;;;;;6.93;100.00;98898.56;10214375;29;20090;-67
2024/02/08 22:30:00;;;;;;;1999.90;999.90;;;;;;;6.83;100.00;98891.41;10213753;29;20555;-67
2024/02/08 22:35:02;;;;;;;1999.90;999.90;;;;;;;7.34;100.00;98886.88;10214418;29;20083;-67
2024/02/08 22:40:07;;;;;;;1999.90;999.90;;;;;;;7.89;100.00;98902.72;10213479;29;20063;-68
2024/02/08 22:45:12;;;;;;;1999.90;999.90;;;;;;;8.10;100.00;98885.44;10213021;29;20055;-68
2024/02/08 22:50:15;;;;;;;1999.90;999.90;;;;;;;7.87;100.00;98881.97;10212664;29;20052;-68
2024/02/08 22:55:23;;;;;;;1999.90;999.90;;;;;;;8.21;100.00;98863.72;10212769;29;20083;-68
2024/02/08 23:05:30;;;;;;;1999.90;999.90;;;;;;;8.45;100.00;98852.34;10213687;29;20115;-68
2024/02/08 23:10:35;;;;;;;1999.90;999.90;;;;;;;8.44;100.00;98842.84;10213954;29;20062;-68
2024/02/08 23:15:44;;;;;;;1999.90;999.90;;;;;;;8.43;100.00;98839.41;10220038;29;20487;-68
2024/02/08 23:20:47;;;;;;;1999.90;999.90;;;;;;;8.62;100.00;98840.56;10218732;29;20507;-68
2024/02/08 23:25:49;;;;;;;1999.90;999.90;;;;;;;8.81;100.00;98830.31;10219080;29;20051;-68
2024/02/08 23:30:52;;;;;;;1999.90;999.90;;;;;;;8.82;100.00;98821.50;10219954;29;20080;-68
2024/02/08 23:35:54;;;;;;;1999.90;999.90;;;;;;;8.52;100.00;98803.94;10219243;29;20414;-68
2024/02/08 23:40:56;;;;;;;1999.90;999.90;;;;;;;8.76;100.00;98814.19;10218829;29;20511;-68
2024/02/08 23:46:02;;;;;;;1999.90;999.90;;;;;;;8.80;100.00;98794.72;10219541;29;20055;-68
2024/02/08 23:51:05;;;;;;;1999.90;999.90;;;;;;;8.50;100.00;98785.81;10218081;29;20130;-68
2024/02/08 23:56:08;;;;;;;1999.90;999.90;;;;;;;8.63;100.00;98777.00;10232512;23;20130;-67
